createdAt,value
2023-02-24T00:00:48.355Z,5.50
2023-02-24T00:02:52.142Z,5.50
2023-02-24T00:05:11.967Z,5.40
2023-02-24T00:07:35.033Z,5.40
2023-02-24T00:09:40.217Z,5.40
2023-02-24T00:11:44.447Z,5.40
2023-02-24T00:13:47.663Z,5.40
2023-02-24T00:16:00.694Z,5.40
2023-02-24T00:18:05.726Z,5.40
2023-02-24T00:20:11.587Z,5.30
2023-02-24T00:22:14.069Z,5.30
2023-02-24T00:24:16.622Z,5.30
2023-02-24T00:26:19.076Z,5.40
2023-02-24T00:28:21.615Z,5.30
2023-02-24T00:30:24.226Z,5.30
2023-02-24T00:32:26.833Z,5.20
2023-02-24T00:34:30.595Z,5.30
2023-02-24T00:36:33.516Z,5.30
2023-02-24T00:38:36.884Z,5.10
2023-02-24T00:40:40.980Z,5.20
2023-02-24T00:42:43.647Z,5.20
2023-02-24T00:44:47.319Z,5.20
2023-02-24T00:46:51.124Z,5.20
2023-02-24T00:48:54.705Z,5.10
2023-02-24T00:50:59.313Z,5.10
2023-02-24T00:53:01.838Z,5.10
2023-02-24T00:55:11.945Z,5.20
2023-02-24T00:57:15.718Z,5.20
2023-02-24T00:59:18.830Z,5.20
2023-02-24T01:01:23.439Z,5.20
2023-02-24T01:03:27.349Z,5.20
2023-02-24T01:05:30.524Z,5.10
2023-02-24T01:07:33.136Z,5.20
2023-02-24T01:09:35.947Z,5.20
2023-02-24T01:11:56.755Z,5.30
2023-02-24T01:13:59.472Z,5.20
2023-02-24T01:16:02.024Z,5.20
2023-02-24T01:18:04.537Z,5.20
2023-02-24T01:20:15.436Z,5.20
2023-02-24T01:22:19.556Z,5.20
2023-02-24T01:24:23.228Z,5.20
2023-02-24T01:26:26.107Z,5.20
2023-02-24T01:28:29.632Z,5.10
2023-02-24T01:30:32.154Z,5.20
2023-02-24T01:32:35.163Z,5.10
2023-02-24T01:34:38.394Z,5.10
2023-02-24T01:36:43.007Z,5.10
2023-02-24T01:38:46.028Z,6.00
2023-02-24T01:40:56.777Z,5.10
2023-02-24T01:42:59.561Z,5.10
2023-02-24T01:45:20.741Z,5.10
2023-02-24T01:47:23.448Z,5.10
2023-02-24T01:49:29.063Z,5.10
2023-02-24T01:51:33.553Z,5.10
2023-02-24T01:53:36.185Z,5.10
2023-02-24T01:55:40.576Z,5.00
2023-02-24T01:57:45.113Z,5.10
2023-02-24T01:59:49.097Z,5.10
2023-02-24T02:01:54.766Z,5.00
2023-02-24T02:04:00.045Z,5.00
2023-02-24T02:06:03.574Z,5.00
2023-02-24T02:08:08.540Z,5.00
2023-02-24T02:10:12.172Z,5.00
2023-02-24T02:12:14.772Z,5.00
2023-02-24T02:14:18.113Z,4.90
2023-02-24T02:16:28.099Z,4.90
2023-02-24T02:18:34.268Z,5.00
2023-02-24T02:20:43.394Z,4.90
2023-02-24T02:22:54.036Z,4.90
2023-02-24T02:24:58.498Z,4.90
2023-02-24T02:27:07.007Z,4.90
2023-02-24T02:29:22.560Z,4.90
2023-02-24T02:31:54.990Z,4.90
2023-02-24T02:34:27.102Z,4.90
2023-02-24T02:36:32.683Z,4.80
2023-02-24T02:38:37.852Z,4.80
2023-02-24T02:40:42.362Z,4.80
2023-02-24T02:42:47.144Z,4.80
2023-02-24T02:44:55.370Z,4.70
2023-02-24T02:46:59.867Z,4.70
2023-02-24T02:49:08.398Z,4.70
2023-02-24T02:51:12.904Z,4.70
2023-02-24T02:53:17.325Z,4.50
2023-02-24T02:55:23.514Z,4.70
2023-02-24T02:57:27.416Z,4.70
2023-02-24T02:59:31.824Z,4.70
2023-02-24T03:01:36.302Z,4.70
2023-02-24T03:03:40.756Z,4.70
2023-02-24T03:05:46.977Z,4.70
2023-02-24T03:07:51.767Z,4.70
2023-02-24T03:09:56.169Z,4.70
2023-02-24T03:12:01.689Z,4.70
2023-02-24T03:14:07.056Z,4.70
2023-02-24T03:16:11.502Z,4.60
2023-02-24T03:18:17.385Z,4.60
2023-02-24T03:20:22.206Z,4.60
2023-02-24T03:22:26.713Z,4.60
2023-02-24T03:24:29.306Z,4.60
2023-02-24T03:26:34.837Z,4.60
2023-02-24T03:28:40.038Z,4.60
2023-02-24T03:30:44.331Z,4.60
2023-02-24T03:32:52.706Z,4.60
2023-02-24T03:34:56.584Z,4.60
2023-02-24T03:36:59.625Z,4.50
2023-02-24T03:39:05.221Z,4.50
2023-02-24T03:41:10.724Z,4.50
2023-02-24T03:43:16.383Z,4.50
2023-02-24T03:45:21.230Z,4.50
2023-02-24T03:47:23.997Z,4.40
2023-02-24T03:49:27.001Z,4.40
2023-02-24T03:51:31.083Z,4.40
2023-02-24T03:53:35.604Z,4.40
2023-02-24T03:55:41.642Z,4.40
2023-02-24T03:57:57.627Z,4.40
2023-02-24T04:00:10.667Z,4.30
2023-02-24T04:02:16.590Z,4.40
2023-02-24T04:04:23.575Z,4.30
2023-02-24T04:06:30.649Z,4.30
2023-02-24T04:08:35.395Z,4.30
2023-02-24T04:10:40.129Z,4.20
2023-02-24T04:12:46.459Z,4.20
2023-02-24T04:14:50.991Z,4.20
2023-02-24T04:16:58.780Z,4.20
2023-02-24T04:19:03.681Z,4.20
2023-02-24T04:21:07.935Z,4.10
2023-02-24T04:23:13.493Z,4.20
2023-02-24T04:25:17.490Z,4.20
2023-02-24T04:27:20.847Z,4.20
2023-02-24T04:29:24.288Z,4.20
2023-02-24T04:31:27.629Z,4.20
2023-02-24T04:33:30.480Z,4.20
2023-02-24T04:35:33.635Z,4.10
2023-02-24T04:37:38.504Z,4.20
2023-02-24T04:39:41.113Z,4.20
2023-02-24T04:41:47.845Z,4.20
2023-02-24T04:43:50.597Z,4.30
2023-02-24T04:45:53.096Z,4.20
2023-02-24T04:47:59.434Z,4.10
2023-02-24T04:50:04.617Z,4.20
2023-02-24T04:52:08.767Z,4.20
2023-02-24T04:54:13.645Z,4.20
2023-02-24T04:56:17.943Z,4.20
2023-02-24T04:58:21.692Z,4.20
2023-02-24T05:00:26.088Z,4.20
2023-02-24T05:02:28.601Z,4.20
2023-02-24T05:04:34.838Z,4.20
2023-02-24T05:06:40.036Z,4.10
2023-02-24T05:08:42.515Z,4.10
2023-02-24T05:10:46.395Z,4.10
2023-02-24T05:12:49.092Z,4.10
2023-02-24T05:14:52.105Z,4.10
2023-02-24T05:16:58.098Z,4.10
2023-02-24T05:19:20.028Z,4.10
2023-02-24T05:21:35.121Z,4.10
2023-02-24T05:23:39.135Z,4.00
2023-02-24T05:25:42.474Z,4.10
2023-02-24T05:27:45.074Z,4.10
2023-02-24T05:29:48.395Z,4.00
2023-02-24T05:31:53.183Z,4.10
2023-02-24T05:33:57.260Z,4.10
2023-02-24T05:36:03.029Z,4.10
2023-02-24T05:38:07.727Z,4.00
2023-02-24T05:40:13.006Z,4.00
2023-02-24T05:42:16.576Z,4.00
2023-02-24T05:44:21.304Z,3.30
2023-02-24T05:46:26.872Z,4.00
2023-02-24T05:48:31.749Z,4.00
2023-02-24T05:50:34.328Z,4.00
2023-02-24T05:52:37.352Z,4.00
2023-02-24T05:54:40.645Z,4.00
2023-02-24T05:56:43.276Z,3.90
2023-02-24T05:58:46.426Z,3.90
2023-02-24T06:00:51.633Z,4.00
2023-02-24T06:02:54.184Z,3.80
2023-02-24T06:04:58.381Z,3.90
2023-02-24T06:07:02.684Z,3.90
2023-02-24T06:09:09.505Z,3.90
2023-02-24T06:11:12.139Z,3.90
2023-02-24T06:13:15.368Z,3.90
2023-02-24T06:15:17.900Z,3.90
2023-02-24T06:17:20.940Z,3.90
2023-02-24T06:19:24.857Z,3.90
2023-02-24T06:21:29.344Z,3.80
2023-02-24T06:23:33.253Z,3.90
2023-02-24T06:25:37.550Z,3.80
2023-02-24T06:27:40.039Z,3.90
2023-02-24T06:29:42.884Z,3.80
2023-02-24T06:31:47.311Z,3.80
2023-02-24T06:33:50.088Z,3.90
2023-02-24T06:35:53.269Z,3.80
2023-02-24T06:37:55.851Z,3.90
2023-02-24T06:39:58.448Z,3.90
2023-02-24T06:42:03.469Z,3.90
2023-02-24T06:44:06.104Z,3.90
2023-02-24T06:46:09.180Z,3.80
2023-02-24T06:48:11.728Z,3.80
2023-02-24T06:50:14.632Z,3.90
2023-02-24T06:52:18.122Z,3.90
2023-02-24T06:54:21.938Z,3.90
2023-02-24T06:56:24.766Z,3.80
2023-02-24T06:58:27.362Z,3.90
2023-02-24T07:00:38.190Z,3.90
2023-02-24T07:02:40.676Z,3.90
2023-02-24T07:04:43.685Z,3.90
2023-02-24T07:06:48.957Z,3.90
2023-02-24T07:08:52.408Z,3.90
2023-02-24T07:10:55.431Z,4.00
2023-02-24T07:12:58.713Z,3.90
2023-02-24T07:15:01.192Z,3.90
2023-02-24T07:17:05.133Z,4.00
2023-02-24T07:19:10.592Z,3.90
2023-02-24T07:21:15.017Z,3.90
2023-02-24T07:23:17.813Z,3.90
2023-02-24T07:25:32.216Z,3.90
2023-02-24T07:27:36.195Z,3.90
2023-02-24T07:29:39.096Z,3.90
2023-02-24T07:31:42.261Z,4.30
2023-02-24T07:33:45.959Z,4.00
2023-02-24T07:35:51.125Z,4.00
2023-02-24T07:37:55.481Z,4.00
2023-02-24T07:39:58.110Z,4.00
2023-02-24T07:42:00.608Z,4.10
2023-02-24T07:44:03.156Z,4.00
2023-02-24T07:46:06.924Z,4.00
2023-02-24T07:48:11.184Z,4.10
2023-02-24T07:50:15.652Z,4.00
2023-02-24T07:52:18.467Z,4.10
2023-02-24T07:54:21.477Z,4.10
2023-02-24T07:56:26.418Z,4.10
2023-02-24T07:58:29.045Z,4.10
2023-02-24T08:00:33.349Z,4.10
2023-02-24T08:02:35.912Z,4.20
2023-02-24T08:04:41.956Z,4.10
2023-02-24T08:06:47.850Z,4.20
2023-02-24T08:08:59.305Z,4.10
2023-02-24T08:11:03.576Z,4.10
2023-02-24T08:13:06.174Z,4.20
2023-02-24T08:15:11.529Z,4.20
2023-02-24T08:17:15.845Z,4.20
2023-02-24T08:19:20.484Z,4.20
2023-02-24T08:21:23.282Z,4.20
2023-02-24T08:23:26.224Z,4.20
2023-02-24T08:25:35.162Z,4.30
2023-02-24T08:27:38.587Z,4.20
2023-02-24T08:29:42.902Z,4.30
2023-02-24T08:31:45.534Z,4.30
2023-02-24T08:33:48.036Z,4.30
2023-02-24T08:35:52.034Z,4.30
2023-02-24T08:37:55.589Z,4.30
2023-02-24T08:39:58.175Z,4.30
2023-02-24T08:42:00.655Z,4.30
2023-02-24T08:44:03.393Z,4.30
2023-02-24T08:46:10.139Z,4.30
2023-02-24T08:48:20.956Z,4.40
2023-02-24T08:50:25.244Z,4.40
2023-02-24T08:52:27.748Z,4.40
2023-02-24T08:54:31.531Z,4.40
2023-02-24T08:56:34.190Z,4.40
2023-02-24T08:58:38.753Z,4.50
2023-02-24T09:00:52.009Z,4.50
2023-02-24T09:02:55.605Z,4.50
2023-02-24T09:05:00.131Z,4.50
2023-02-24T09:07:11.584Z,4.50
2023-02-24T09:09:17.862Z,4.60
2023-02-24T09:11:22.507Z,4.50
2023-02-24T09:13:27.528Z,4.60
2023-02-24T09:15:34.651Z,4.60
2023-02-24T09:17:42.757Z,4.60
2023-02-24T09:20:06.409Z,4.60
2023-02-24T09:22:21.214Z,4.70
2023-02-24T09:24:25.465Z,4.60
2023-02-24T09:26:30.527Z,4.60
2023-02-24T09:28:34.863Z,4.70
2023-02-24T09:30:38.844Z,4.70
2023-02-24T09:32:44.222Z,4.70
2023-02-24T09:34:46.849Z,4.70
2023-02-24T09:36:51.360Z,4.70
2023-02-24T09:39:09.545Z,4.70
2023-02-24T09:41:19.207Z,4.70
2023-02-24T09:43:23.860Z,4.70
2023-02-24T09:45:32.861Z,4.70
2023-02-24T09:47:42.757Z,4.70
2023-02-24T09:49:49.188Z,4.80
2023-02-24T09:51:54.253Z,4.80
2023-02-24T09:53:56.820Z,4.80
2023-02-24T09:56:00.472Z,4.80
2023-02-24T09:58:26.980Z,4.80
2023-02-24T10:00:29.500Z,4.80
2023-02-24T10:02:38.346Z,4.80
2023-02-24T10:04:53.307Z,4.80
2023-02-24T10:06:58.386Z,4.80
2023-02-24T10:09:05.588Z,4.80
2023-02-24T10:11:10.246Z,4.80
2023-02-24T10:13:14.672Z,4.80
2023-02-24T10:15:20.014Z,4.80
2023-02-24T10:17:24.332Z,4.80
2023-02-24T10:19:28.884Z,4.70
2023-02-24T10:21:36.391Z,4.80
2023-02-24T10:23:44.286Z,4.70
2023-02-24T10:25:50.341Z,4.70
2023-02-24T10:28:00.072Z,4.70
2023-02-24T10:30:06.367Z,4.70
2023-02-24T10:32:16.332Z,4.70
2023-02-24T10:34:23.788Z,4.60
2023-02-24T10:36:27.412Z,4.60
2023-02-24T10:38:29.977Z,4.70
2023-02-24T10:40:35.462Z,4.60
2023-02-24T10:42:40.785Z,4.60
2023-02-24T10:44:56.800Z,4.60
2023-02-24T10:47:05.641Z,4.50
2023-02-24T10:49:12.668Z,4.40
2023-02-24T10:51:18.740Z,4.40
2023-02-24T10:53:28.189Z,4.40
2023-02-24T10:55:40.714Z,4.30
2023-02-24T10:57:58.234Z,4.30
2023-02-24T11:00:20.033Z,4.30
2023-02-24T11:02:26.364Z,4.20
2023-02-24T11:04:35.306Z,4.20
2023-02-24T11:06:57.382Z,4.20
2023-02-24T11:09:10.798Z,4.20
2023-02-24T11:11:19.748Z,4.20
2023-02-24T11:13:40.694Z,4.20
2023-02-24T11:16:02.082Z,4.20
2023-02-24T11:18:06.336Z,4.30
2023-02-24T11:20:16.758Z,4.30
2023-02-24T11:22:20.860Z,4.20
2023-02-24T11:24:23.527Z,4.30
2023-02-24T11:26:27.722Z,4.30
2023-02-24T11:28:34.937Z,4.30
2023-02-24T11:30:41.326Z,4.30
2023-02-24T11:32:49.181Z,4.40
2023-02-24T11:34:54.841Z,4.40
2023-02-24T11:37:00.882Z,4.40
2023-02-24T11:39:17.191Z,4.30
2023-02-24T11:41:13.711Z,4.30
2023-02-24T11:43:18.255Z,4.20
2023-02-24T11:45:23.752Z,4.20
2023-02-24T11:47:28.741Z,4.20
2023-02-24T11:49:33.071Z,4.20
2023-02-24T11:51:36.973Z,4.20
2023-02-24T11:53:42.651Z,4.20
2023-02-24T11:55:46.296Z,4.10
2023-02-24T11:57:50.609Z,4.10
2023-02-24T11:59:55.126Z,4.10
2023-02-24T12:01:59.470Z,4.10
2023-02-24T12:04:04.315Z,4.10
2023-02-24T12:06:12.031Z,4.10
2023-02-24T12:08:16.454Z,4.10
2023-02-24T12:10:20.172Z,4.20
2023-02-24T12:12:24.668Z,4.20
2023-02-24T12:14:30.545Z,4.10
2023-02-24T12:16:36.519Z,4.10
2023-02-24T12:18:41.020Z,4.10
2023-02-24T12:20:45.419Z,4.20
2023-02-24T12:22:50.009Z,4.10
2023-02-24T12:24:54.249Z,4.00
2023-02-24T12:27:00.891Z,4.10
2023-02-24T12:29:18.313Z,4.10
2023-02-24T12:31:25.257Z,4.10
2023-02-24T12:33:33.114Z,4.10
2023-02-24T12:35:39.443Z,4.00
2023-02-24T12:37:50.470Z,4.00
2023-02-24T12:39:55.780Z,4.10
2023-02-24T12:42:01.552Z,4.10
2023-02-24T12:44:07.192Z,4.20
2023-02-24T12:46:12.447Z,4.00
2023-02-24T12:48:19.004Z,4.00
2023-02-24T12:50:25.903Z,4.00
2023-02-24T12:52:30.212Z,3.90
2023-02-24T12:54:34.659Z,4.00
2023-02-24T12:56:40.699Z,3.90
2023-02-24T12:58:45.015Z,3.90
2023-02-24T13:00:51.756Z,3.90
2023-02-24T13:02:56.498Z,3.90
2023-02-24T13:05:01.258Z,3.90
2023-02-24T13:07:09.446Z,3.90
2023-02-24T13:09:14.443Z,3.90
2023-02-24T13:11:19.470Z,3.90
2023-02-24T13:13:24.463Z,3.90
2023-02-24T13:15:30.092Z,3.90
2023-02-24T13:17:32.756Z,3.90
2023-02-24T13:19:35.272Z,3.90
2023-02-24T13:21:39.388Z,3.90
2023-02-24T13:23:42.967Z,3.90
2023-02-24T13:25:50.494Z,3.90
2023-02-24T13:27:58.997Z,3.90
2023-02-24T13:30:03.329Z,3.90
2023-02-24T13:32:06.270Z,3.90
2023-02-24T13:34:37.615Z,3.90
2023-02-24T13:36:46.766Z,3.90
2023-02-24T13:38:50.343Z,3.80
2023-02-24T13:40:52.832Z,3.90
2023-02-24T13:42:59.485Z,3.90
2023-02-24T13:45:07.158Z,3.90
2023-02-24T13:47:29.011Z,3.90
2023-02-24T13:49:35.140Z,3.80
2023-02-24T13:51:42.836Z,3.80
2023-02-24T13:53:50.382Z,3.80
2023-02-24T13:56:01.192Z,3.80
2023-02-24T13:58:07.892Z,3.80
2023-02-24T14:00:13.760Z,3.80
2023-02-24T14:02:17.719Z,3.80
2023-02-24T14:04:22.767Z,3.80
2023-02-24T14:06:26.311Z,3.90
2023-02-24T14:08:32.508Z,3.80
2023-02-24T14:10:36.424Z,3.80
2023-02-24T14:12:40.686Z,3.80
2023-02-24T14:14:44.181Z,3.80
2023-02-24T14:16:48.224Z,3.80
2023-02-24T14:18:54.224Z,3.90
2023-02-24T14:20:57.588Z,3.90
2023-02-24T14:23:00.249Z,3.90
2023-02-24T14:25:03.301Z,3.90
2023-02-24T14:27:05.821Z,3.90
2023-02-24T14:29:08.903Z,4.00
2023-02-24T14:31:13.619Z,3.90
2023-02-24T14:33:18.369Z,3.90
2023-02-24T14:35:23.374Z,4.00
2023-02-24T14:37:26.839Z,3.90
2023-02-24T14:39:30.670Z,3.90
2023-02-24T14:41:33.929Z,4.00
2023-02-24T14:43:40.833Z,4.00
2023-02-24T14:45:45.118Z,4.00
2023-02-24T14:47:48.144Z,4.10
2023-02-24T14:49:54.947Z,4.10
2023-02-24T14:51:59.316Z,4.00
2023-02-24T14:54:03.609Z,4.00
2023-02-24T14:56:07.323Z,4.00
2023-02-24T14:58:12.972Z,4.10
2023-02-24T15:00:19.384Z,4.00
2023-02-24T15:02:24.975Z,4.00
2023-02-24T15:04:33.057Z,4.10
2023-02-24T15:06:37.703Z,4.10
2023-02-24T15:08:42.075Z,4.10
2023-02-24T15:10:46.390Z,4.10
2023-02-24T15:12:50.620Z,4.10
2023-02-24T15:14:54.579Z,4.10
2023-02-24T15:16:59.684Z,4.10
2023-02-24T15:19:02.561Z,4.10
2023-02-24T15:21:07.223Z,4.20
2023-02-24T15:23:24.061Z,4.20
2023-02-24T15:25:37.259Z,4.20
2023-02-24T15:27:32.335Z,4.20
2023-02-24T15:29:35.031Z,4.20
2023-02-24T15:31:38.017Z,4.20
2023-02-24T15:33:43.025Z,4.20
2023-02-24T15:35:48.809Z,4.30
2023-02-24T15:37:51.871Z,4.30
2023-02-24T15:39:58.778Z,4.40
2023-02-24T15:42:08.635Z,4.40
2023-02-24T15:44:28.065Z,4.40
2023-02-24T15:46:32.003Z,4.40
2023-02-24T15:48:34.941Z,4.40
2023-02-24T15:50:37.858Z,4.40
2023-02-24T15:52:41.029Z,4.50
2023-02-24T15:54:43.780Z,4.50
2023-02-24T15:56:46.684Z,4.50
2023-02-24T15:58:49.231Z,4.50
2023-02-24T16:00:52.743Z,4.50
2023-02-24T16:02:55.651Z,4.50
2023-02-24T16:04:58.227Z,4.60
2023-02-24T16:07:00.918Z,4.60
2023-02-24T16:09:05.523Z,4.60
2023-02-24T16:11:08.189Z,4.60
2023-02-24T16:13:13.129Z,4.60
2023-02-24T16:15:17.644Z,4.60
2023-02-24T16:17:22.668Z,4.70
2023-02-24T16:20:03.477Z,4.70
2023-02-24T16:22:06.555Z,4.70
2023-02-24T16:24:09.158Z,4.70
2023-02-24T16:26:14.931Z,4.70
2023-02-24T16:28:18.519Z,4.70
2023-02-24T16:30:22.771Z,4.80
2023-02-24T16:32:26.894Z,4.80
2023-02-24T16:34:29.643Z,4.80
2023-02-24T16:36:32.680Z,4.80
2023-02-24T16:38:35.927Z,4.80
2023-02-24T16:40:39.229Z,4.80
2023-02-24T16:46:02.224Z,4.80
2023-02-24T16:48:25.308Z,4.90
2023-02-24T16:53:20.300Z,3.70
2023-02-24T17:06:49.612Z,6.90
2023-02-24T17:17:01.306Z,7.80
2023-02-24T17:19:07.395Z,5.40
2023-02-24T17:21:12.148Z,4.90
2023-02-24T17:23:14.772Z,4.70
2023-02-24T17:25:18.365Z,4.80
2023-02-24T17:27:21.145Z,4.80
2023-02-24T17:29:23.934Z,4.80
2023-02-24T17:31:28.789Z,4.90
2023-02-24T17:33:33.319Z,4.90
2023-02-24T17:35:35.843Z,4.90
2023-02-24T17:37:38.365Z,5.00
2023-02-24T17:39:41.006Z,5.00
2023-02-24T17:41:43.486Z,4.90
2023-02-24T17:43:46.016Z,5.10
2023-02-24T17:45:48.543Z,5.10
2023-02-24T17:47:53.181Z,5.10
2023-02-24T17:49:55.762Z,5.20
2023-02-24T17:51:58.376Z,5.20
2023-02-24T17:54:01.123Z,5.20
2023-02-24T17:56:08.139Z,5.20
2023-02-24T17:58:10.685Z,6.40
2023-02-24T18:00:15.032Z,5.20
2023-02-24T18:02:17.903Z,5.30
2023-02-24T18:04:20.718Z,5.00
2023-02-24T18:06:24.339Z,5.30
2023-02-24T18:08:27.114Z,5.30
2023-02-24T18:10:29.673Z,5.30
2023-02-24T18:12:32.219Z,5.30
2023-02-24T18:14:34.916Z,5.30
2023-02-24T18:16:37.553Z,5.30
2023-02-24T18:18:40.409Z,5.30
2023-02-24T18:20:43.184Z,5.40
2023-02-24T18:22:45.724Z,5.30
2023-02-24T18:24:48.243Z,5.30
2023-02-24T18:26:50.811Z,5.30
2023-02-24T18:28:53.317Z,5.30
2023-02-24T18:30:56.133Z,5.30
2023-02-24T18:32:58.871Z,5.30
2023-02-24T18:35:01.701Z,5.30
2023-02-24T18:37:04.188Z,5.20
2023-02-24T18:39:08.384Z,5.30
2023-02-24T18:41:11.948Z,5.30
2023-02-24T18:43:14.436Z,5.30
2023-02-24T18:45:17.088Z,5.20
2023-02-24T18:47:20.587Z,5.20
2023-02-24T18:49:23.285Z,5.20
2023-02-24T18:51:26.100Z,5.10
2023-02-24T18:53:30.050Z,5.00
2023-02-24T18:55:35.056Z,4.90
2023-02-24T18:57:37.896Z,4.80
2023-02-24T18:59:40.899Z,4.70
2023-02-24T19:01:43.461Z,4.70
2023-02-24T19:03:46.700Z,4.60
2023-02-24T19:05:49.813Z,4.60
2023-02-24T19:07:52.299Z,4.60
2023-02-24T19:09:54.969Z,4.60
2023-02-24T19:11:57.678Z,4.60
2023-02-24T19:14:00.288Z,4.60
2023-02-24T19:16:03.881Z,4.60
2023-02-24T19:18:07.691Z,4.60
2023-02-24T19:20:14.847Z,4.70
2023-02-24T19:22:18.372Z,4.70
2023-02-24T19:24:21.889Z,4.70
2023-02-24T19:26:28.044Z,4.70
2023-02-24T19:28:31.225Z,4.70
2023-02-24T19:30:34.547Z,4.70
2023-02-24T19:32:38.671Z,4.70
2023-02-24T19:34:43.666Z,4.70
2023-02-24T19:36:47.426Z,4.70
2023-02-24T19:38:50.905Z,4.70
2023-02-24T19:40:56.070Z,4.60
2023-02-24T19:42:59.564Z,4.60
2023-02-24T19:45:02.306Z,4.60
2023-02-24T19:47:05.651Z,4.50
2023-02-24T19:49:09.056Z,4.50
2023-02-24T19:51:13.678Z,4.50
2023-02-24T19:53:17.028Z,4.50
2023-02-24T19:55:21.072Z,4.50
2023-02-24T19:57:25.886Z,4.50
2023-02-24T19:59:29.760Z,4.50
2023-02-24T20:01:33.368Z,4.60
2023-02-24T20:03:37.423Z,4.60
2023-02-24T20:05:42.477Z,4.60
2023-02-24T20:07:46.099Z,4.60
2023-02-24T20:09:49.754Z,4.60
2023-02-24T20:11:55.251Z,4.60
2023-02-24T20:13:58.513Z,4.60
2023-02-24T20:16:05.752Z,4.60
2023-02-24T20:18:09.117Z,4.60
2023-02-24T20:20:13.436Z,4.60
2023-02-24T20:22:17.053Z,4.60
2023-02-24T20:24:20.534Z,4.50
2023-02-24T20:26:24.861Z,4.50
2023-02-24T20:28:30.409Z,4.50
2023-02-24T20:30:33.556Z,4.50
2023-02-24T20:32:39.066Z,4.40
2023-02-24T20:34:42.541Z,4.30
2023-02-24T20:36:45.760Z,4.30
2023-02-24T20:38:48.868Z,4.20
2023-02-24T20:40:58.927Z,4.20
2023-02-24T20:43:02.072Z,4.20
2023-02-24T20:45:05.229Z,4.10
2023-02-24T20:47:08.346Z,4.20
2023-02-24T20:49:14.577Z,4.20
2023-02-24T20:51:18.714Z,4.10
2023-02-24T20:53:22.525Z,4.10
2023-02-24T20:55:27.029Z,4.20
2023-02-24T20:57:30.290Z,4.20
2023-02-24T20:59:33.389Z,4.30
2023-02-24T21:01:36.447Z,4.30
2023-02-24T21:03:40.135Z,4.20
2023-02-24T21:05:43.692Z,4.30
2023-02-24T21:07:49.501Z,4.30
2023-02-24T21:09:55.315Z,4.30
2023-02-24T21:12:00.105Z,4.30
2023-02-24T21:14:05.432Z,4.30
2023-02-24T21:16:10.687Z,4.40
2023-02-24T21:18:14.752Z,4.40
2023-02-24T21:20:19.766Z,4.40
2023-02-24T21:22:24.443Z,4.50
2023-02-24T21:24:30.828Z,4.40
2023-02-24T21:26:34.421Z,4.50
2023-02-24T21:28:41.624Z,4.40
2023-02-24T21:30:45.083Z,4.40
2023-02-24T21:32:47.946Z,4.40
2023-02-24T21:34:50.501Z,4.40
2023-02-24T21:36:54.207Z,4.30
2023-02-24T21:38:57.205Z,4.30
2023-02-24T21:41:00.444Z,4.30
2023-02-24T21:43:05.216Z,4.30
2023-02-24T21:45:11.265Z,4.20
2023-02-24T21:47:14.045Z,4.20
2023-02-24T21:49:17.723Z,4.20
2023-02-24T21:51:20.731Z,4.20
2023-02-24T21:53:25.422Z,4.20
2023-02-24T21:55:28.055Z,4.10
2023-02-24T21:57:31.903Z,4.10
2023-02-24T21:59:34.645Z,4.10
2023-02-24T22:01:39.327Z,4.10
2023-02-24T22:03:43.320Z,4.10
2023-02-24T22:05:49.553Z,4.10
2023-02-24T22:07:52.469Z,4.20
2023-02-24T22:09:55.581Z,4.20
2023-02-24T22:11:58.423Z,4.20
2023-02-24T22:14:01.396Z,4.30
2023-02-24T22:16:06.530Z,4.30
2023-02-24T22:18:09.305Z,4.30
2023-02-24T22:20:13.528Z,4.30
2023-02-24T22:22:16.834Z,4.30
2023-02-24T22:24:19.735Z,4.40
2023-02-24T22:26:22.984Z,4.40
2023-02-24T22:28:26.982Z,4.30
2023-02-24T22:30:29.880Z,4.30
2023-02-24T22:32:32.847Z,4.30
2023-02-24T22:34:36.136Z,4.30
2023-02-24T22:36:38.825Z,4.30
2023-02-24T22:38:42.015Z,4.40
2023-02-24T22:40:44.638Z,4.30
2023-02-24T22:42:47.254Z,4.30
2023-02-24T22:44:49.960Z,4.30
2023-02-24T22:46:52.853Z,4.30
2023-02-24T22:48:55.916Z,4.20
2023-02-24T22:51:00.389Z,4.20
2023-02-24T22:53:02.964Z,4.20
2023-02-24T22:55:06.147Z,4.20
2023-02-24T22:57:08.667Z,4.20
2023-02-24T22:59:11.440Z,4.20
2023-02-24T23:01:15.862Z,4.20
2023-02-24T23:03:19.538Z,4.10
2023-02-24T23:05:22.120Z,4.20
2023-02-24T23:07:24.677Z,4.20
2023-02-24T23:09:27.529Z,4.10
2023-02-24T23:11:30.829Z,4.10
2023-02-24T23:13:34.827Z,4.10
2023-02-24T23:15:38.372Z,4.10
2023-02-24T23:17:40.953Z,4.10
2023-02-24T23:19:43.469Z,4.10
2023-02-24T23:21:49.209Z,4.20
2023-02-24T23:23:56.343Z,4.20
2023-02-24T23:25:59.124Z,4.20
2023-02-24T23:28:01.724Z,4.20
2023-02-24T23:30:04.905Z,4.20
2023-02-24T23:32:08.004Z,4.20
2023-02-24T23:34:11.361Z,4.20
2023-02-24T23:36:14.705Z,4.20
2023-02-24T23:38:17.204Z,4.20
2023-02-24T23:40:21.723Z,4.20
2023-02-24T23:42:24.271Z,4.20
2023-02-24T23:44:26.851Z,4.20
2023-02-24T23:46:29.492Z,4.20
2023-02-24T23:48:32.259Z,4.20
2023-02-24T23:50:36.948Z,4.10
2023-02-24T23:52:39.449Z,4.10
2023-02-24T23:54:42.077Z,4.10
2023-02-24T23:56:44.649Z,4.20
2023-02-24T23:58:50.209Z,4.20
